Burwash, Yukon

Past 24 Hour Conditions

This table is a summary of hourly weather conditions for the past 24 hours. This summary includes the following parameters: temperature, humidity, dew point, wind speed and direction, air pressure, visibility and/or wind chill and humidex.
Date / Time
(PDT)
Conditions Temp (°F) Humidity (%) Dew Point (°F) Wind (mph) Pressure (inches) Visibility (miles)
18 April 2014
14:00 N/A 45   36 20 N/A 29.5 N/A
13:00 N/A 43 43 23 N/A 29.5 N/A
12:00 N/A 43 51 26 N/A 29.5 N/A
11:00 N/A 40 61 28 N/A 29.5 N/A
10:00 N/A 36 72 28 N/A 29.5 N/A
9:00 N/A 31 87 28 N/A 29.5 N/A
8:00 N/A 24 97 24 N/A 29.5 N/A
7:00 N/A 21   97 20 N/A 29.5 N/A
6:00 N/A 22 97 22 N/A 29.5 N/A
5:00 N/A 24 95 23 N/A 29.4 N/A
4:00 N/A 26 94 24 N/A 29.4 N/A
3:00 N/A 26 93 24 N/A 29.4 N/A
2:00 N/A 27 96 26 N/A 29.4 N/A
1:00 N/A 25 96 24 N/A 29.4 N/A
00:00 N/A 28 93 26 N/A 29.4 N/A
17 April 2014
23:00 N/A 33 84 28 N/A 29.4 N/A
22:00 N/A 34 83 29 N/A 29.4 N/A
21:00 N/A 36 79 30 N/A 29.4 N/A
20:00 N/A 35 79 30 N/A 29.4 N/A
19:00 N/A 39 67 29 N/A 29.4 N/A
18:00 N/A 40 62 28 N/A 29.4 N/A
17:00 N/A 42 55 27 N/A 29.4 N/A
16:00 N/A 42 50 25 N/A 29.4 N/A
15:00 N/A 41 51 24 N/A 29.4 N/A
14:00 N/A 42 51 26 N/A 29.4 N/A
N/A
Not available
 ↑ 
Highest temperature
 ↓ 
Lowest temperature

If you require additional historical weather information, please visit Climate Data Online.